Time;durP1;ratioP1;P1;durP2;ratioP2;P2;SDS_P1;SDS_P2;PMS_P1;PMS_P2;Temp;Humidity;BMP_temperature;BMP_pressure;BME280_temperature;BME280_humidity;BME280_pressure;Samples;Min_cycle;Max_cycle;Signal;HPM_P1;HPM_P2
2023/12/20 00:00:07;;;;;;;2.60;2.40;;;8.30;99.90;;;;;;942419;147;27485;-84
2023/12/20 00:02:33;;;;;;;2.83;2.53;;;8.40;99.90;;;;;;943293;147;28805;-84
2023/12/20 00:05:00;;;;;;;2.50;2.30;;;8.40;99.90;;;;;;943210;147;27329;-84
2023/12/20 00:07:26;;;;;;;2.43;2.23;;;8.40;99.90;;;;;;942613;147;27279;-84
2023/12/20 00:09:53;;;;;;;2.00;1.90;;;8.40;99.90;;;;;;944133;147;27774;-83
2023/12/20 00:12:19;;;;;;;2.60;2.40;;;8.30;99.90;;;;;;942406;147;27332;-84
2023/12/20 00:14:46;;;;;;;3.10;2.33;;;8.40;99.90;;;;;;942890;147;27354;-84
2023/12/20 00:17:12;;;;;;;2.20;2.10;;;8.40;99.90;;;;;;945048;147;27292;-84
2023/12/20 00:19:39;;;;;;;2.50;2.30;;;8.40;99.90;;;;;;943134;147;27459;-84
2023/12/20 00:22:06;;;;;;;2.50;2.30;;;8.40;99.90;;;;;;942962;147;27501;-84
2023/12/20 00:24:32;;;;;;;2.30;2.20;;;8.40;99.90;;;;;;942516;147;27378;-83
2023/12/20 00:26:59;;;;;;;2.40;2.20;;;8.40;99.90;;;;;;945370;147;27293;-84
2023/12/20 00:29:25;;;;;;;2.67;2.47;;;8.40;99.90;;;;;;943207;147;27311;-84
2023/12/20 00:31:52;;;;;;;2.50;2.20;;;8.30;99.90;;;;;;942593;147;27446;-83
2023/12/20 00:34:19;;;;;;;2.60;2.40;;;8.40;99.90;;;;;;942972;147;28514;-83
2023/12/20 00:36:45;;;;;;;2.50;2.30;;;8.40;99.90;;;;;;943897;147;27329;-83
2023/12/20 00:39:12;;;;;;;2.40;2.20;;;8.40;99.90;;;;;;945183;147;27293;-83
2023/12/20 00:41:38;;;;;;;2.73;2.30;;;8.40;99.90;;;;;;944340;147;27419;-84
2023/12/20 00:44:05;;;;;;;2.07;1.97;;;8.40;99.90;;;;;;942429;147;27826;-83
2023/12/20 00:46:32;;;;;;;2.63;2.40;;;8.40;99.90;;;;;;944846;147;27313;-82
2023/12/20 00:48:58;;;;;;;2.50;2.30;;;8.40;99.90;;;;;;943592;147;27337;-82
2023/12/20 00:51:25;;;;;;;2.40;2.20;;;8.40;99.90;;;;;;942227;147;27245;-83
2023/12/20 00:53:54;;;;;;;2.30;2.20;;;8.40;99.90;;;;;;945519;147;27445;-83
2023/12/20 00:56:18;;;;;;;4.87;2.37;;;8.40;99.90;;;;;;942148;147;27304;-82
2023/12/20 00:58:44;;;;;;;2.30;2.10;;;8.40;99.90;;;;;;942825;147;27297;-82
2023/12/20 01:01:11;;;;;;;2.30;2.20;;;8.40;99.90;;;;;;942644;147;27290;-83
2023/12/20 01:03:38;;;;;;;2.60;2.40;;;8.40;99.90;;;;;;945920;147;27347;-82
2023/12/20 01:06:05;;;;;;;2.30;2.10;;;8.40;99.90;;;;;;944187;147;27474;-82
2023/12/20 01:08:31;;;;;;;2.10;2.00;;;8.40;99.90;;;;;;942515;147;27289;-82
2023/12/20 01:10:57;;;;;;;2.40;2.20;;;8.40;99.90;;;;;;942963;147;27937;-84
2023/12/20 01:13:24;;;;;;;2.00;1.90;;;8.40;99.90;;;;;;944063;147;27802;-83
2023/12/20 01:15:51;;;;;;;2.27;2.17;;;8.40;99.90;;;;;;943381;147;27434;-83
2023/12/20 01:18:17;;;;;;;2.40;2.20;;;8.40;99.90;;;;;;943334;147;27415;-83
2023/12/20 01:20:44;;;;;;;2.50;1.97;;;8.40;99.90;;;;;;944903;147;27673;-82
2023/12/20 01:23:11;;;;;;;3.27;2.33;;;8.40;99.90;;;;;;943434;147;27350;-82
2023/12/20 01:25:37;;;;;;;2.10;2.00;;;8.40;99.90;;;;;;928665;150;27494;-83
2023/12/20 01:28:03;;;;;;;2.03;1.93;;;8.40;99.90;;;;;;926065;150;28987;-82
2023/12/20 01:30:30;;;;;;;2.20;2.10;;;8.40;99.90;;;;;;927398;150;27411;-83
2023/12/20 01:32:57;;;;;;;1.93;1.70;;;8.40;99.90;;;;;;927242;150;27398;-83
2023/12/20 01:35:23;;;;;;;3.27;1.83;;;8.40;99.90;;;;;;942787;147;27377;-83
2023/12/20 01:37:50;;;;;;;2.00;1.90;;;8.30;99.90;;;;;;931217;150;27385;-82
2023/12/20 01:40:16;;;;;;;2.20;2.00;;;8.40;99.90;;;;;;924599;150;27400;-82
2023/12/20 01:42:43;;;;;;;2.00;1.87;;;8.40;99.90;;;;;;945762;147;27392;-83
2023/12/20 01:45:10;;;;;;;2.00;1.90;;;8.30;99.90;;;;;;943700;147;27387;-83
2023/12/20 01:47:36;;;;;;;2.03;1.93;;;8.30;99.90;;;;;;943183;147;27350;-84
2023/12/20 01:50:03;;;;;;;2.00;1.90;;;8.40;99.90;;;;;;942931;147;27855;-85
2023/12/20 01:52:29;;;;;;;1.70;1.60;;;8.40;99.90;;;;;;943084;147;27339;-85
2023/12/20 01:55:02;;;;;;;1.80;1.70;;;8.40;99.90;;;;;;943918;147;27325;-84
2023/12/20 01:57:22;;;;;;;1.70;1.60;;;8.30;99.90;;;;;;942982;147;27847;-85
2023/12/20 01:59:49;;;;;;;1.70;1.60;;;8.30;99.90;;;;;;943567;147;27496;-85
2023/12/20 02:02:16;;;;;;;1.70;1.60;;;8.40;99.90;;;;;;943352;147;27289;-85
2023/12/20 02:04:43;;;;;;;1.87;1.77;;;8.40;99.90;;;;;;942541;147;27349;-84
2023/12/20 02:07:09;;;;;;;1.90;1.80;;;8.40;99.90;;;;;;942358;147;27443;-84
2023/12/20 02:09:35;;;;;;;1.70;1.60;;;8.40;99.90;;;;;;945898;147;27929;-84
2023/12/20 02:12:02;;;;;;;1.70;1.60;;;8.40;99.90;;;;;;942695;147;27400;-85
2023/12/20 02:14:29;;;;;;;1.70;1.60;;;8.40;99.90;;;;;;944137;147;27380;-84
2023/12/20 02:16:55;;;;;;;1.70;1.60;;;8.40;99.90;;;;;;942742;147;27380;-84
2023/12/20 02:19:22;;;;;;;1.77;1.67;;;8.40;99.90;;;;;;942216;147;27453;-84
2023/12/20 02:21:48;;;;;;;2.00;1.80;;;8.40;99.90;;;;;;942201;147;27354;-84
2023/12/20 02:24:15;;;;;;;1.90;1.80;;;8.40;99.90;;;;;;943623;147;27307;-85
2023/12/20 02:26:41;;;;;;;1.83;1.70;;;8.40;99.90;;;;;;942298;147;27853;-85
2023/12/20 02:29:08;;;;;;;1.60;1.50;;;8.40;99.90;;;;;;943553;147;27361;-84
2023/12/20 02:31:35;;;;;;;1.40;1.30;;;8.40;99.90;;;;;;943320;147;27761;-84
2023/12/20 02:34:01;;;;;;;2.10;1.90;;;8.40;99.90;;;;;;944079;147;27344;-84
2023/12/20 02:36:28;;;;;;;1.50;1.40;;;8.40;99.90;;;;;;943177;147;27435;-85
2023/12/20 02:38:54;;;;;;;2.03;1.83;;;8.40;99.90;;;;;;942818;147;27322;-85
2023/12/20 02:41:21;;;;;;;1.70;1.60;;;8.40;99.90;;;;;;941517;147;27450;-85
2023/12/20 02:43:48;;;;;;;1.70;1.60;;;8.40;99.90;;;;;;942582;147;27311;-85
2023/12/20 02:46:14;;;;;;;3.00;1.90;;;8.40;99.90;;;;;;941164;147;27283;-85
2023/12/20 02:48:41;;;;;;;1.90;1.80;;;8.40;99.90;;;;;;942209;147;27400;-85
2023/12/20 02:51:07;;;;;;;1.80;1.70;;;8.40;99.90;;;;;;943612;147;27382;-85
2023/12/20 02:53:34;;;;;;;2.17;2.07;;;8.30;99.90;;;;;;941845;147;27374;-84
2023/12/20 02:56:03;;;;;;;1.60;1.50;;;8.40;99.90;;;;;;943414;147;27427;-88
2023/12/20 02:58:30;;;;;;;1.77;1.67;;;8.40;99.90;;;;;;942495;147;27777;-84
2023/12/20 03:00:56;;;;;;;1.63;1.53;;;8.30;99.90;;;;;;944940;147;27336;-84
2023/12/20 03:03:23;;;;;;;1.70;1.60;;;8.30;99.90;;;;;;929954;150;27907;-84
2023/12/20 03:05:49;;;;;;;1.63;1.53;;;8.30;99.90;;;;;;944733;147;27286;-84
2023/12/20 03:08:16;;;;;;;1.80;1.70;;;8.30;99.90;;;;;;941897;147;27459;-84
2023/12/20 03:10:42;;;;;;;1.40;1.37;;;8.30;99.90;;;;;;942416;147;27289;-84
2023/12/20 03:13:09;;;;;;;1.30;1.30;;;8.30;99.90;;;;;;943172;147;27348;-84
2023/12/20 03:15:37;;;;;;;1.60;1.50;;;8.30;99.90;;;;;;944182;147;27406;-84
2023/12/20 03:18:02;;;;;;;1.57;1.47;;;8.30;99.90;;;;;;942682;147;27381;-83
2023/12/20 03:20:33;;;;;;;1.87;1.77;;;8.30;99.90;;;;;;944409;147;27354;-84
2023/12/20 03:22:55;;;;;;;1.67;1.57;;;8.30;99.90;;;;;;941652;147;27461;-84
2023/12/20 03:25:22;;;;;;;1.53;1.43;;;8.30;99.90;;;;;;940778;147;27435;-85
2023/12/20 03:27:49;;;;;;;2.17;1.80;;;8.30;99.90;;;;;;944269;147;27370;-84
2023/12/20 03:30:15;;;;;;;1.57;1.47;;;8.40;99.90;;;;;;945619;147;27412;-84
2023/12/20 03:32:42;;;;;;;1.53;1.43;;;8.40;99.90;;;;;;942532;147;27326;-84
2023/12/20 03:35:08;;;;;;;2.20;1.50;;;8.40;99.90;;;;;;941979;147;27374;-84
2023/12/20 03:37:35;;;;;;;1.77;1.67;;;8.40;99.90;;;;;;941788;147;27365;-84
2023/12/20 03:40:01;;;;;;;1.50;1.40;;;8.40;99.90;;;;;;943689;147;27371;-84
2023/12/20 03:42:28;;;;;;;1.60;1.50;;;8.40;99.90;;;;;;941547;147;27361;-84
2023/12/20 03:44:55;;;;;;;1.70;1.60;;;8.40;99.90;;;;;;941485;147;27687;-84
2023/12/20 03:47:21;;;;;;;1.60;1.50;;;8.40;99.90;;;;;;941837;147;27399;-84
2023/12/20 03:49:48;;;;;;;1.60;1.50;;;8.40;99.90;;;;;;943638;147;27407;-84
2023/12/20 03:52:14;;;;;;;2.43;1.80;;;8.40;99.90;;;;;;943110;147;27301;-84
2023/12/20 03:54:43;;;;;;;1.60;1.50;;;8.40;99.90;;;;;;943989;147;27816;-84
2023/12/20 03:57:10;;;;;;;1.70;1.60;;;8.40;99.90;;;;;;944866;147;27424;-85
2023/12/20 03:59:37;;;;;;;1.80;1.70;;;8.40;99.90;;;;;;942551;147;27322;-84
2023/12/20 04:02:03;;;;;;;1.80;1.70;;;8.40;99.90;;;;;;943220;147;27325;-84
2023/12/20 04:04:30;;;;;;;1.57;1.50;;;8.50;99.90;;;;;;943566;147;27434;-84
2023/12/20 04:06:56;;;;;;;1.47;1.37;;;8.50;99.90;;;;;;942543;147;27349;-82
2023/12/20 04:09:23;;;;;;;1.43;1.37;;;8.50;99.90;;;;;;942993;147;27782;-82
2023/12/20 04:11:50;;;;;;;1.63;1.53;;;8.50;99.90;;;;;;944552;147;27315;-84
2023/12/20 04:14:16;;;;;;;1.20;1.20;;;8.50;99.90;;;;;;944318;147;27442;-84
2023/12/20 04:16:43;;;;;;;1.67;1.57;;;8.50;99.90;;;;;;945926;147;27451;-83
2023/12/20 04:19:09;;;;;;;1.47;1.37;;;8.50;99.90;;;;;;941255;147;27334;-82
2023/12/20 04:21:36;;;;;;;1.40;1.40;;;8.60;99.90;;;;;;943055;147;27336;-83
2023/12/20 04:24:03;;;;;;;1.57;1.47;;;8.60;99.90;;;;;;943904;147;27316;-83
2023/12/20 04:26:29;;;;;;;1.67;1.57;;;8.60;99.90;;;;;;943609;147;27336;-83
2023/12/20 04:28:56;;;;;;;1.77;1.53;;;8.60;99.90;;;;;;942755;147;27340;-82
2023/12/20 04:31:22;;;;;;;1.77;1.67;;;8.60;99.90;;;;;;942010;147;27378;-83
2023/12/20 04:33:49;;;;;;;1.70;1.60;;;8.60;99.90;;;;;;942396;147;27310;-84
2023/12/20 04:36:15;;;;;;;1.90;1.70;;;8.60;99.90;;;;;;943478;147;28363;-85
2023/12/20 04:38:42;;;;;;;1.73;1.63;;;8.60;99.90;;;;;;942048;147;27381;-83
2023/12/20 04:41:09;;;;;;;1.77;1.67;;;8.60;99.90;;;;;;944402;147;27335;-83
2023/12/20 04:43:35;;;;;;;1.70;1.60;;;8.60;99.90;;;;;;942303;147;27419;-82
2023/12/20 04:46:02;;;;;;;1.80;1.70;;;8.60;99.90;;;;;;942957;147;27444;-84
2023/12/20 04:48:28;;;;;;;1.70;1.60;;;8.60;99.90;;;;;;943768;147;27327;-81
2023/12/20 04:50:55;;;;;;;1.70;1.60;;;8.60;99.90;;;;;;941811;147;27275;-83
2023/12/20 04:53:22;;;;;;;1.70;1.60;;;8.60;99.90;;;;;;941514;147;27322;-83
2023/12/20 04:55:48;;;;;;;1.90;1.70;;;8.60;99.90;;;;;;941459;147;27311;-83
2023/12/20 04:58:15;;;;;;;2.00;1.90;;;8.50;99.90;;;;;;943214;147;27418;-82
2023/12/20 05:00:41;;;;;;;2.70;2.20;;;8.50;99.90;;;;;;943950;147;27355;-82
2023/12/20 05:03:09;;;;;;;2.17;2.00;;;8.40;99.90;;;;;;942650;147;27449;-83
2023/12/20 05:05:35;;;;;;;1.90;1.80;;;8.40;99.90;;;;;;943950;147;27409;-82
2023/12/20 05:08:01;;;;;;;1.90;1.80;;;8.40;99.90;;;;;;943842;147;27364;-83
2023/12/20 05:10:28;;;;;;;2.30;2.10;;;8.30;99.90;;;;;;943914;147;27484;-83
2023/12/20 05:12:54;;;;;;;2.00;1.90;;;8.30;99.90;;;;;;942148;147;27415;-83
2023/12/20 05:15:21;;;;;;;2.47;2.27;;;8.20;99.90;;;;;;942097;147;27369;-82
2023/12/20 05:17:47;;;;;;;2.80;2.60;;;8.20;99.90;;;;;;943407;147;27372;-89
2023/12/20 05:20:14;;;;;;;2.73;2.53;;;8.10;99.90;;;;;;941145;147;27352;-85
2023/12/20 05:22:41;;;;;;;2.20;1.97;;;8.00;99.90;;;;;;944997;147;27363;-88
2023/12/20 05:25:07;;;;;;;2.33;2.23;;;7.90;99.90;;;;;;937739;149;27471;-88
2023/12/20 05:27:34;;;;;;;2.30;2.10;;;7.90;99.90;;;;;;932871;149;27475;-88
2023/12/20 05:30:00;;;;;;;2.23;2.07;;;7.80;99.90;;;;;;921187;150;27320;-87
2023/12/20 05:32:27;;;;;;;2.20;2.00;;;7.70;99.90;;;;;;920148;150;27397;-88
2023/12/20 05:34:53;;;;;;;2.40;2.20;;;7.70;99.90;;;;;;939477;147;27284;-88
2023/12/20 05:37:20;;;;;;;2.03;1.93;;;7.60;99.90;;;;;;937718;147;27444;-86
2023/12/20 05:39:47;;;;;;;3.67;1.87;;;7.60;99.90;;;;;;938653;147;27415;-86
2023/12/20 05:42:13;;;;;;;1.87;1.77;;;7.50;99.90;;;;;;936295;147;27466;-88
2023/12/20 05:44:40;;;;;;;2.60;2.40;;;7.50;99.90;;;;;;937621;147;27349;-89
2023/12/20 05:47:06;;;;;;;2.63;2.43;;;7.60;99.90;;;;;;931112;150;27345;-88
2023/12/20 05:49:33;;;;;;;2.27;2.10;;;7.60;99.90;;;;;;931829;152;27389;-88
2023/12/20 05:52:00;;;;;;;2.03;1.83;;;7.70;99.90;;;;;;931696;151;27447;-88
2023/12/20 05:54:26;;;;;;;2.17;2.07;;;7.70;99.90;;;;;;930906;149;27750;-87
2023/12/20 05:56:53;;;;;;;2.00;1.90;;;7.80;99.90;;;;;;931106;152;27285;-88
2023/12/20 05:59:19;;;;;;;1.70;1.60;;;7.80;99.90;;;;;;928997;152;27298;-87
2023/12/20 06:01:46;;;;;;;1.90;1.80;;;7.80;99.90;;;;;;931694;152;27379;-88
2023/12/20 06:04:12;;;;;;;2.70;1.90;;;7.80;99.90;;;;;;930002;151;27343;-88
2023/12/20 06:06:42;;;;;;;2.27;2.17;;;7.80;99.90;;;;;;931665;152;27281;-89
2023/12/20 06:09:09;;;;;;;1.90;1.80;;;7.80;99.90;;;;;;929331;152;27458;-88
2023/12/20 06:11:35;;;;;;;2.60;2.40;;;7.70;99.90;;;;;;930533;152;27280;-87
2023/12/20 06:14:02;;;;;;;2.30;1.93;;;7.70;99.90;;;;;;930114;152;27291;-84
2023/12/20 06:16:28;;;;;;;2.20;2.03;;;7.60;99.90;;;;;;931185;152;27440;-88
2023/12/20 06:18:55;;;;;;;2.30;2.20;;;7.50;99.90;;;;;;932712;149;27275;-88
2023/12/20 06:21:22;;;;;;;2.30;2.10;;;7.50;99.90;;;;;;931874;152;27294;-87
2023/12/20 06:23:48;;;;;;;2.00;1.90;;;7.40;99.90;;;;;;930425;152;27286;-86
2023/12/20 06:26:15;;;;;;;2.20;2.00;;;7.40;99.90;;;;;;929325;152;27328;-88
2023/12/20 06:28:41;;;;;;;2.13;1.93;;;7.30;99.90;;;;;;934180;146;27369;-84
2023/12/20 06:31:08;;;;;;;3.23;1.80;;;7.20;99.90;;;;;;927568;149;27485;-84
2023/12/20 06:33:34;;;;;;;1.83;1.73;;;7.20;99.90;;;;;;942659;147;27248;-84
2023/12/20 06:36:01;;;;;;;2.50;2.07;;;7.10;99.90;;;;;;920286;150;27923;-84
2023/12/20 06:38:28;;;;;;;2.43;1.80;;;7.00;99.90;;;;;;943066;147;27333;-84
2023/12/20 06:40:55;;;;;;;2.90;1.90;;;7.00;99.90;;;;;;943606;147;27271;-84
2023/12/20 06:43:21;;;;;;;1.83;1.73;;;6.90;99.90;;;;;;945297;147;27387;-84
2023/12/20 06:45:47;;;;;;;2.17;1.97;;;6.90;99.90;;;;;;943576;147;27337;-84
2023/12/20 06:48:14;;;;;;;2.73;1.80;;;6.80;99.90;;;;;;944815;147;27481;-84
2023/12/20 06:50:41;;;;;;;3.60;2.27;;;6.80;99.90;;;;;;943748;147;27253;-84
2023/12/20 06:53:07;;;;;;;3.17;2.23;;;6.70;99.90;;;;;;942471;147;27780;-84
2023/12/20 06:55:37;;;;;;;2.57;1.77;;;6.70;99.90;;;;;;940544;147;27338;-84
2023/12/20 06:58:04;;;;;;;2.27;2.07;;;6.60;99.90;;;;;;942340;147;27358;-84
2023/12/20 07:00:30;;;;;;;2.53;2.33;;;6.60;99.90;;;;;;943311;147;27360;-83
2023/12/20 07:02:56;;;;;;;3.27;2.23;;;6.50;99.90;;;;;;943334;147;27350;-83
2023/12/20 07:05:23;;;;;;;2.50;2.13;;;6.50;99.90;;;;;;942118;147;27314;-84
2023/12/20 07:07:50;;;;;;;2.17;2.03;;;6.50;99.90;;;;;;943588;147;27825;-84
2023/12/20 07:10:16;;;;;;;2.30;1.90;;;6.40;99.90;;;;;;943655;147;27374;-84
2023/12/20 07:12:43;;;;;;;1.90;1.80;;;6.40;99.90;;;;;;942060;147;27430;-84
2023/12/20 07:15:09;;;;;;;2.23;2.00;;;6.40;99.90;;;;;;943286;147;27426;-84
2023/12/20 07:17:36;;;;;;;2.40;2.00;;;6.30;99.90;;;;;;943110;147;27294;-84
2023/12/20 07:20:06;;;;;;;3.23;2.20;;;6.30;99.90;;;;;;944893;147;27361;-84
2023/12/20 07:22:32;;;;;;;2.27;2.07;;;6.30;99.90;;;;;;944111;147;27340;-85
2023/12/20 07:24:58;;;;;;;3.97;2.07;;;6.30;99.90;;;;;;943363;147;27290;-84
2023/12/20 07:27:25;;;;;;;3.33;2.30;;;6.30;99.90;;;;;;943094;147;27432;-84
2023/12/20 07:29:51;;;;;;;2.63;1.83;;;6.30;99.90;;;;;;950907;146;27426;-84
2023/12/20 07:32:18;;;;;;;2.80;1.80;;;6.40;99.90;;;;;;934728;149;27430;-84
2023/12/20 07:34:45;;;;;;;2.33;2.10;;;6.50;99.90;;;;;;933871;149;27295;-83
2023/12/20 07:37:11;;;;;;;2.97;2.10;;;6.60;99.90;;;;;;950974;146;27309;-85
2023/12/20 07:39:40;;;;;;;3.47;2.20;;;6.60;99.90;;;;;;952293;146;27725;-86
2023/12/20 07:42:07;;;;;;;2.57;2.10;;;6.70;99.90;;;;;;936114;149;28436;-86
2023/12/20 07:44:35;;;;;;;3.37;2.43;;;6.80;99.90;;;;;;933594;149;27347;-86
2023/12/20 07:47:01;;;;;;;6.03;2.87;;;6.80;99.90;;;;;;951957;146;27328;-86
2023/12/20 07:49:27;;;;;;;3.23;2.30;;;6.90;99.90;;;;;;949953;146;27364;-86
2023/12/20 07:51:53;;;;;;;5.13;2.23;;;7.00;99.90;;;;;;951823;146;27362;-86
2023/12/20 07:54:20;;;;;;;3.20;2.00;;;7.10;99.90;;;;;;956118;146;27316;-85
2023/12/20 07:56:47;;;;;;;4.27;2.00;;;7.20;99.90;;;;;;953761;146;27299;-85
2023/12/20 07:59:13;;;;;;;5.10;2.13;;;7.20;99.90;;;;;;952790;146;27311;-85
2023/12/20 08:01:40;;;;;;;3.67;2.20;;;7.30;99.90;;;;;;951934;146;27364;-84
2023/12/20 08:04:06;;;;;;;3.40;2.27;;;7.30;99.90;;;;;;953152;146;27419;-84
2023/12/20 08:06:33;;;;;;;4.10;2.63;;;7.30;99.90;;;;;;953303;146;27332;-86
2023/12/20 08:09:00;;;;;;;4.00;1.93;;;7.30;99.90;;;;;;952448;146;27517;-86
2023/12/20 08:11:26;;;;;;;4.50;2.20;;;7.30;99.90;;;;;;952424;146;27431;-86
2023/12/20 08:13:53;;;;;;;3.63;2.20;;;7.30;99.90;;;;;;953400;146;27398;-85
2023/12/20 08:16:19;;;;;;;2.77;1.87;;;7.40;99.90;;;;;;951496;146;27284;-85
2023/12/20 08:18:46;;;;;;;3.27;2.23;;;7.30;99.90;;;;;;942675;147;27352;-85
2023/12/20 08:21:12;;;;;;;2.43;2.00;;;7.40;99.90;;;;;;940620;147;27345;-85
2023/12/20 08:23:39;;;;;;;3.27;1.90;;;7.40;99.90;;;;;;943194;147;27341;-86
2023/12/20 08:26:09;;;;;;;2.80;1.60;;;7.40;99.90;;;;;;942641;147;27305;-85
2023/12/20 08:28:35;;;;;;;2.37;2.07;;;7.50;99.90;;;;;;941518;147;27319;-86
2023/12/20 08:31:02;;;;;;;2.90;2.03;;;7.50;99.90;;;;;;942806;147;27386;-85
2023/12/20 08:33:28;;;;;;;3.00;2.63;;;7.50;99.90;;;;;;941170;147;27385;-85
2023/12/20 08:35:55;;;;;;;6.50;3.10;;;7.50;99.90;;;;;;943886;147;27405;-86
2023/12/20 08:38:21;;;;;;;2.87;2.50;;;7.60;99.90;;;;;;945348;147;27328;-85
2023/12/20 08:40:48;;;;;;;5.80;3.07;;;7.60;99.90;;;;;;943789;147;27776;-85
2023/12/20 08:43:15;;;;;;;3.37;2.30;;;7.70;99.90;;;;;;942261;147;27360;-86
2023/12/20 08:45:41;;;;;;;5.67;2.47;;;7.80;99.90;;;;;;944199;147;27344;-86
2023/12/20 08:48:08;;;;;;;3.30;2.10;;;7.80;99.90;;;;;;943753;147;27404;-83
2023/12/20 08:50:35;;;;;;;2.77;1.63;;;7.90;99.90;;;;;;942002;147;27466;-84
2023/12/20 08:53:01;;;;;;;4.13;2.07;;;7.90;99.90;;;;;;944017;147;27288;-85
2023/12/20 08:55:28;;;;;;;2.93;2.33;;;8.00;99.90;;;;;;940337;147;27373;-83
2023/12/20 08:57:54;;;;;;;3.93;2.27;;;8.10;99.90;;;;;;941788;147;27495;-84
2023/12/20 09:00:24;;;;;;;6.67;2.10;;;8.10;99.90;;;;;;941463;147;27330;-84
2023/12/20 09:02:47;;;;;;;2.53;1.93;;;8.10;99.90;;;;;;941616;147;27332;-83
2023/12/20 09:05:14;;;;;;;2.67;2.07;;;8.20;99.90;;;;;;945728;147;27380;-82
2023/12/20 09:07:40;;;;;;;4.07;2.10;;;8.20;99.90;;;;;;945768;147;27353;-82
2023/12/20 09:10:07;;;;;;;3.53;1.77;;;8.20;99.90;;;;;;942065;147;27406;-81
2023/12/20 09:12:34;;;;;;;4.00;1.93;;;8.30;99.90;;;;;;942972;147;27285;-82
2023/12/20 09:15:02;;;;;;;3.00;1.60;;;8.30;99.90;;;;;;942054;147;27334;-83
2023/12/20 09:17:27;;;;;;;3.07;1.73;;;8.40;99.90;;;;;;943135;147;27461;-81
2023/12/20 09:19:54;;;;;;;3.87;1.80;;;8.40;99.90;;;;;;944160;147;27368;-82
2023/12/20 09:22:20;;;;;;;3.60;2.50;;;8.50;99.90;;;;;;943387;147;27289;-83
2023/12/20 09:24:47;;;;;;;1.60;1.50;;;8.50;99.90;;;;;;943691;147;27320;-83
2023/12/20 09:27:13;;;;;;;5.20;1.87;;;8.50;99.90;;;;;;943538;147;27482;-82
2023/12/20 09:29:40;;;;;;;3.00;1.90;;;8.60;99.90;;;;;;943491;147;27271;-82
2023/12/20 09:32:06;;;;;;;3.90;1.77;;;8.70;99.90;;;;;;953227;146;27881;-83
2023/12/20 09:34:33;;;;;;;6.13;1.90;;;8.70;99.90;;;;;;953230;146;27324;-83
2023/12/20 09:36:59;;;;;;;3.50;2.70;;;8.80;99.90;;;;;;953279;146;27465;-82
2023/12/20 09:39:26;;;;;;;5.77;2.40;;;8.80;99.90;;;;;;951359;146;27350;-82
2023/12/20 09:42:02;;;;;;;2.43;2.07;;;8.80;99.90;;;;;;952330;146;27410;-81
2023/12/20 09:44:28;;;;;;;1.87;1.63;;;8.90;99.90;;;;;;950325;146;27461;-83
2023/12/20 09:46:55;;;;;;;2.43;1.77;;;9.00;99.90;;;;;;952980;146;27346;-84
2023/12/20 09:49:21;;;;;;;3.00;1.77;;;9.00;99.90;;;;;;950766;146;27328;-82
2023/12/20 09:51:48;;;;;;;4.87;2.17;;;9.00;99.90;;;;;;949989;146;27353;-82
2023/12/20 09:54:17;;;;;;;2.77;1.50;;;9.00;99.90;;;;;;953669;146;27268;-83
2023/12/20 09:56:46;;;;;;;5.80;1.87;;;9.10;99.90;;;;;;952606;146;27451;-83
2023/12/20 09:59:13;;;;;;;4.07;1.97;;;9.10;99.90;;;;;;951829;146;27336;-83
2023/12/20 10:01:42;;;;;;;3.67;2.03;;;9.20;99.90;;;;;;954303;146;27343;-83
2023/12/20 10:04:09;;;;;;;3.00;1.60;;;9.20;99.90;;;;;;951142;146;27364;-83
2023/12/20 10:06:35;;;;;;;5.50;1.90;;;9.20;99.90;;;;;;947664;146;27450;-83
2023/12/20 10:09:02;;;;;;;2.67;1.80;;;9.20;99.90;;;;;;946178;146;27358;-83
2023/12/20 10:11:28;;;;;;;3.83;2.03;;;9.30;99.90;;;;;;948618;146;27447;-84
2023/12/20 10:13:55;;;;;;;2.70;1.90;;;9.30;99.90;;;;;;948034;146;27394;-83
2023/12/20 10:16:21;;;;;;;4.70;2.20;;;9.30;99.90;;;;;;946768;146;27335;-83
2023/12/20 10:18:48;;;;;;;3.10;2.30;;;9.40;99.90;;;;;;944208;146;27319;-83
2023/12/20 10:21:15;;;;;;;6.30;2.07;;;9.40;99.90;;;;;;947940;146;27245;-83
2023/12/20 10:23:41;;;;;;;6.20;2.33;;;9.40;99.90;;;;;;947339;146;27310;-82
2023/12/20 10:26:08;;;;;;;5.70;2.57;;;9.50;99.90;;;;;;946308;146;27372;-83
2023/12/20 10:28:35;;;;;;;3.43;1.70;;;9.50;99.90;;;;;;933532;149;27377;-83
2023/12/20 10:31:01;;;;;;;4.77;2.10;;;9.60;99.90;;;;;;927119;150;27394;-83
2023/12/20 10:33:28;;;;;;;2.10;1.80;;;9.60;99.90;;;;;;939007;150;27399;-83
2023/12/20 10:35:54;;;;;;;3.40;1.90;;;9.60;99.90;;;;;;942493;151;27320;-82
2023/12/20 10:38:21;;;;;;;2.63;1.73;;;9.70;99.90;;;;;;915073;153;27390;-84
2023/12/20 10:40:47;;;;;;;3.10;1.40;;;9.70;99.90;;;;;;924183;151;28412;-83
2023/12/20 10:43:14;;;;;;;3.20;1.63;;;9.70;99.90;;;;;;926785;152;27319;-83
2023/12/20 10:45:40;;;;;;;2.47;2.20;;;9.80;99.90;;;;;;927734;151;27425;-83
2023/12/20 10:48:07;;;;;;;4.60;1.80;;;9.80;99.90;;;;;;939316;151;27358;-83
2023/12/20 10:50:34;;;;;;;4.33;2.03;;;9.90;99.90;;;;;;940633;151;27732;-83
2023/12/20 10:53:00;;;;;;;3.27;1.90;;;9.90;99.90;;;;;;940274;149;27359;-83
2023/12/20 10:55:27;;;;;;;4.37;1.70;;;10.00;99.90;;;;;;941516;151;27323;-83
2023/12/20 10:57:56;;;;;;;5.30;2.17;;;10.00;99.90;;;;;;939187;151;27312;-83
2023/12/20 11:00:22;;;;;;;4.03;1.47;;;10.10;99.90;;;;;;928445;152;27333;-83
2023/12/20 11:02:49;;;;;;;2.10;1.60;;;10.10;99.90;;;;;;929959;152;27408;-83
2023/12/20 11:05:30;;;;;;;3.93;2.30;;;10.10;99.90;;;;;;930411;151;27397;-83
2023/12/20 11:08:09;;;;;;;4.47;2.03;;;10.10;99.90;;;;;;929896;151;27449;-83
2023/12/20 11:10:51;;;;;;;3.90;1.70;;;10.10;99.90;;;;;;923956;152;27520;-83
2023/12/20 11:13:23;;;;;;;6.77;2.20;;;10.10;99.90;;;;;;929823;150;27440;-84
2023/12/20 11:15:49;;;;;;;3.13;2.17;;;10.00;99.90;;;;;;926775;152;27497;-83
2023/12/20 11:18:16;;;;;;;5.13;2.43;;;10.00;99.90;;;;;;927984;151;27346;-83
2023/12/20 11:20:42;;;;;;;5.07;2.57;;;9.90;99.90;;;;;;934706;151;27335;-84
2023/12/20 11:23:09;;;;;;;3.10;2.00;;;9.90;99.90;;;;;;926746;152;27324;-84
2023/12/20 11:25:54;;;;;;;4.23;2.20;;;9.90;99.90;;;;;;931199;152;27543;-84
2023/12/20 11:28:26;;;;;;;7.00;2.63;;;9.90;99.90;;;;;;928617;153;27476;-84
2023/12/20 11:30:53;;;;;;;4.57;2.30;;;9.90;99.90;;;;;;929936;151;27426;-84
2023/12/20 11:33:25;;;;;;;4.20;2.33;;;9.90;99.90;;;;;;927856;149;27328;-84
2023/12/20 11:35:51;;;;;;;5.43;2.67;;;9.90;99.90;;;;;;945488;147;27883;-84
2023/12/20 11:38:18;;;;;;;6.27;2.97;;;9.90;99.90;;;;;;934030;149;27390;-84
2023/12/20 11:40:44;;;;;;;3.60;2.13;;;10.00;99.90;;;;;;947092;147;27302;-83
2023/12/20 11:43:11;;;;;;;4.37;2.10;;;10.10;99.90;;;;;;949375;146;27402;-83
2023/12/20 11:45:38;;;;;;;5.60;2.23;;;10.20;99.90;;;;;;932585;149;27337;-83
2023/12/20 11:48:04;;;;;;;4.20;2.20;;;10.20;99.90;;;;;;945532;147;27392;-83
2023/12/20 11:50:31;;;;;;;3.80;1.90;;;10.40;99.90;;;;;;946685;147;27301;-84
2023/12/20 11:52:57;;;;;;;3.40;2.03;;;10.40;99.90;;;;;;929455;149;27344;-83
2023/12/20 11:55:24;;;;;;;5.00;2.10;;;10.50;99.90;;;;;;945228;147;27308;-84
2023/12/20 11:57:51;;;;;;;6.50;1.70;;;10.60;99.90;;;;;;943026;147;27359;-83
2023/12/20 12:00:17;;;;;;;3.17;2.20;;;10.70;99.90;;;;;;945705;147;27347;-84
2023/12/20 12:02:44;;;;;;;3.83;1.83;;;10.80;99.90;;;;;;933489;149;27289;-84
2023/12/20 12:07:50;;;;;;;2.97;1.80;;;10.80;99.90;;;;;;993161;140;38223;-84
2023/12/20 12:10:17;;;;;;;2.67;1.70;;;10.90;99.90;;;;;;970069;146;27290;-84
2023/12/20 12:12:44;;;;;;;4.20;1.93;;;11.00;99.90;;;;;;927990;151;27402;-84
2023/12/20 12:15:10;;;;;;;2.33;1.83;;;11.10;99.90;;;;;;936939;150;27369;-84
2023/12/20 12:17:38;;;;;;;2.45;1.90;;;11.20;99.90;;;;;;927471;153;27345;-85
2023/12/20 12:20:04;;;;;;;4.20;1.87;;;11.20;99.90;;;;;;951519;150;27289;-85
2023/12/20 12:22:30;;;;;;;4.67;1.93;;;11.20;99.90;;;;;;934930;153;27759;-86
2023/12/20 12:24:57;;;;;;;4.37;2.40;;;11.30;99.90;;;;;;950811;150;27293;-85
2023/12/20 12:27:24;;;;;;;2.70;1.95;;;11.30;99.90;;;;;;934470;151;27388;-86
2023/12/20 12:30:03;;;;;;;4.37;1.87;;;11.30;99.90;;;;;;941872;151;27368;-85
2023/12/20 12:32:29;;;;;;;3.67;2.40;;;11.30;99.90;;;;;;942092;152;27297;-85
2023/12/20 12:34:55;;;;;;;2.57;1.63;;;11.30;99.90;;;;;;951811;148;27293;-85
2023/12/20 12:37:23;;;;;;;5.90;1.83;;;11.30;99.90;;;;;;951750;150;27374;-84
2023/12/20 12:39:48;;;;;;;4.93;2.00;;;11.30;99.90;;;;;;951505;150;27363;-85
2023/12/20 12:42:15;;;;;;;6.03;2.50;;;11.20;99.90;;;;;;935224;150;27374;-84
2023/12/20 12:44:41;;;;;;;5.30;2.60;;;11.20;99.90;;;;;;951491;148;27250;-84
2023/12/20 12:47:08;;;;;;;5.20;2.20;;;11.20;99.90;;;;;;927244;154;27262;-85
2023/12/20 12:49:35;;;;;;;4.60;2.10;;;11.20;99.90;;;;;;927834;154;27370;-84
2023/12/20 12:52:02;;;;;;;5.13;2.37;;;11.10;99.90;;;;;;942078;149;27362;-84
2023/12/20 12:54:28;;;;;;;4.80;2.23;;;11.10;99.90;;;;;;951524;150;27249;-85